createdAt,value
2018-08-03T00:00:15.011Z,21.92
2018-08-03T00:01:15.038Z,21.96
2018-08-03T00:02:14.973Z,21.93
2018-08-03T00:03:14.955Z,21.90
2018-08-03T00:04:14.932Z,21.89
2018-08-03T00:05:14.908Z,21.92
2018-08-03T00:06:14.930Z,21.86
2018-08-03T00:07:14.871Z,21.89
2018-08-03T00:08:14.847Z,21.90
2018-08-03T00:09:14.827Z,21.77
2018-08-03T00:10:14.847Z,21.82
2018-08-03T00:11:14.780Z,21.77
2018-08-03T00:12:14.757Z,21.78
2018-08-03T00:13:14.745Z,21.68
2018-08-03T00:14:14.713Z,21.66
2018-08-03T00:15:14.758Z,21.73
2018-08-03T00:16:14.717Z,21.80
2018-08-03T00:17:14.693Z,21.67
2018-08-03T00:18:14.629Z,21.59
2018-08-03T00:19:14.612Z,21.78
2018-08-03T00:20:14.586Z,21.67
2018-08-03T00:21:15.304Z,21.73
2018-08-03T00:22:14.585Z,21.71
2018-08-03T00:23:14.523Z,21.68
2018-08-03T00:24:14.520Z,21.78
2018-08-03T00:25:14.573Z,21.70
2018-08-03T00:26:14.454Z,21.77
2018-08-03T00:27:14.438Z,21.74
2018-08-03T00:28:14.415Z,21.74
2018-08-03T00:29:14.392Z,21.76
2018-08-03T00:30:14.419Z,21.67
2018-08-03T00:31:14.352Z,21.71
2018-08-03T00:32:14.326Z,21.74
2018-08-03T00:33:14.315Z,21.80
2018-08-03T00:34:14.288Z,21.71
2018-08-03T00:35:14.319Z,21.76
2018-08-03T00:36:14.243Z,21.77
2018-08-03T00:37:14.230Z,21.71
2018-08-03T00:38:14.262Z,21.74
2018-08-03T00:39:14.179Z,21.74
2018-08-03T00:40:14.159Z,21.77
2018-08-03T00:41:14.133Z,21.74
2018-08-03T00:42:14.114Z,21.74
2018-08-03T00:43:14.141Z,21.74
2018-08-03T00:44:14.112Z,21.67
2018-08-03T00:45:14.047Z,21.73
2018-08-03T00:46:14.034Z,21.68
2018-08-03T00:47:14.010Z,21.73
2018-08-03T00:48:14.030Z,21.80
2018-08-03T00:49:13.958Z,21.78
2018-08-03T00:50:13.939Z,21.71
2018-08-03T00:51:13.931Z,21.61
2018-08-03T00:52:13.899Z,21.71
2018-08-03T00:53:13.948Z,21.74
2018-08-03T00:54:13.863Z,21.64
2018-08-03T00:55:13.857Z,21.64
2018-08-03T00:56:13.813Z,21.64
2018-08-03T00:57:13.787Z,21.64
2018-08-03T00:58:13.832Z,21.67
2018-08-03T00:59:13.744Z,21.67
2018-08-03T01:00:13.722Z,21.59
2018-08-03T01:01:13.701Z,21.70
2018-08-03T01:02:13.734Z,21.66
2018-08-03T01:03:13.659Z,21.70
2018-08-03T01:04:13.636Z,21.66
2018-08-03T01:05:13.620Z,21.73
2018-08-03T01:06:13.595Z,21.67
2018-08-03T01:07:13.627Z,21.61
2018-08-03T01:08:13.551Z,21.67
2018-08-03T01:09:13.544Z,21.70
2018-08-03T01:10:13.553Z,21.66
2018-08-03T01:11:13.530Z,21.73
2018-08-03T01:12:13.463Z,21.66
2018-08-03T01:13:13.440Z,21.64
2018-08-03T01:14:13.425Z,21.56
2018-08-03T01:15:13.403Z,21.51
2018-08-03T01:16:13.423Z,21.48
2018-08-03T01:17:13.403Z,21.51
2018-08-03T01:18:13.350Z,21.45
2018-08-03T01:19:13.353Z,21.43
2018-08-03T01:20:13.319Z,21.46
2018-08-03T01:21:13.378Z,21.38
2018-08-03T01:22:13.299Z,21.38
2018-08-03T01:23:13.225Z,21.41
2018-08-03T01:24:13.226Z,21.36
2018-08-03T01:25:13.193Z,21.18
2018-08-03T01:26:13.164Z,21.22
2018-08-03T01:27:13.185Z,21.23
2018-08-03T01:28:13.819Z,21.16
2018-08-03T01:29:13.101Z,21.11
2018-08-03T01:30:13.078Z,21.03
2018-08-03T01:31:13.104Z,20.96
2018-08-03T01:32:13.052Z,20.96
2018-08-03T01:33:13.022Z,20.91
2018-08-03T01:34:12.992Z,20.83
2018-08-03T01:35:12.963Z,20.78
2018-08-03T01:36:12.999Z,20.83
2018-08-03T01:37:12.919Z,20.83
2018-08-03T01:38:12.941Z,20.71
2018-08-03T01:39:12.889Z,20.76
2018-08-03T01:40:13.386Z,20.74
2018-08-03T01:41:12.838Z,20.72
2018-08-03T01:42:12.815Z,20.66
2018-08-03T01:43:12.854Z,20.74
2018-08-03T01:44:13.324Z,20.64
2018-08-03T01:45:12.746Z,20.66
2018-08-03T01:46:12.728Z,20.61
2018-08-03T01:47:12.711Z,20.67
2018-08-03T01:48:12.740Z,20.68
2018-08-03T01:49:12.651Z,20.54
2018-08-03T01:50:12.640Z,20.63
2018-08-03T01:51:12.613Z,20.49
2018-08-03T01:52:12.593Z,20.46
2018-08-03T01:53:12.623Z,20.53
2018-08-03T01:54:12.545Z,20.41
2018-08-03T01:55:12.532Z,20.44
2018-08-03T01:56:12.503Z,20.42
2018-08-03T01:57:12.542Z,20.46
2018-08-03T01:58:12.458Z,20.56
2018-08-03T01:59:12.469Z,20.60
2018-08-03T02:00:12.419Z,20.46
2018-08-03T02:01:12.393Z,20.48
2018-08-03T02:02:12.893Z,20.60
2018-08-03T02:03:12.362Z,20.54
2018-08-03T02:04:12.348Z,20.49
2018-08-03T02:05:12.300Z,20.49
2018-08-03T02:06:12.290Z,20.49
2018-08-03T02:07:12.306Z,20.44
2018-08-03T02:08:12.286Z,20.42
2018-08-03T02:09:12.215Z,20.48
2018-08-03T02:10:12.838Z,20.48
2018-08-03T02:11:12.173Z,20.40
2018-08-03T02:12:12.845Z,20.32
2018-08-03T02:13:12.170Z,20.32
2018-08-03T02:14:12.401Z,20.34
2018-08-03T02:15:12.126Z,20.32
2018-08-03T02:16:12.847Z,20.30
2018-08-03T02:17:12.035Z,20.26
2018-08-03T02:18:12.010Z,20.30
2018-08-03T02:19:12.039Z,20.26
2018-08-03T02:20:12.836Z,20.26
2018-08-03T02:21:11.945Z,20.27
2018-08-03T02:22:12.837Z,20.23
2018-08-03T02:23:11.903Z,20.25
2018-08-03T02:24:11.924Z,20.27
2018-08-03T02:25:12.838Z,20.26
2018-08-03T02:26:11.833Z,20.20
2018-08-03T02:27:11.827Z,20.19
2018-08-03T02:28:12.341Z,20.20
2018-08-03T02:29:11.849Z,20.15
2018-08-03T02:30:11.746Z,20.11
2018-08-03T02:31:12.334Z,20.15
2018-08-03T02:32:11.701Z,20.15
2018-08-03T02:33:11.679Z,20.12
2018-08-03T02:34:11.733Z,20.10
2018-08-03T02:35:12.337Z,20.18
2018-08-03T02:36:11.607Z,20.07
2018-08-03T02:37:12.343Z,20.08
2018-08-03T02:38:11.564Z,20.11
2018-08-03T02:39:11.583Z,20.05
2018-08-03T02:40:11.889Z,20.11
2018-08-03T02:41:11.545Z,20.15
2018-08-03T02:42:11.473Z,20.22
2018-08-03T02:43:11.449Z,20.20
2018-08-03T02:44:12.338Z,20.22
2018-08-03T02:45:11.405Z,20.19
2018-08-03T02:46:11.884Z,20.27
2018-08-03T02:47:11.359Z,20.29
2018-08-03T02:48:11.337Z,20.34
2018-08-03T02:49:11.318Z,20.38
2018-08-03T02:50:11.404Z,20.46
2018-08-03T02:51:11.274Z,20.48
2018-08-03T02:52:11.858Z,20.46
2018-08-03T02:53:11.230Z,20.48
2018-08-03T02:54:11.836Z,20.44
2018-08-03T02:55:11.228Z,20.44
2018-08-03T02:56:11.394Z,20.44
2018-08-03T02:57:11.190Z,20.48
2018-08-03T02:58:11.867Z,20.48
2018-08-03T02:59:11.102Z,20.44
2018-08-03T03:00:11.081Z,20.46
2018-08-03T03:01:11.163Z,20.48
2018-08-03T03:02:11.846Z,20.44
2018-08-03T03:03:11.020Z,20.46
2018-08-03T03:04:10.997Z,20.48
2018-08-03T03:05:10.972Z,20.46
2018-08-03T03:06:11.404Z,20.46
2018-08-03T03:07:10.919Z,20.46
2018-08-03T03:08:10.900Z,20.48
2018-08-03T03:09:10.879Z,20.51
2018-08-03T03:10:11.844Z,20.46
2018-08-03T03:11:10.877Z,20.49
2018-08-03T03:12:10.912Z,20.51
2018-08-03T03:13:10.789Z,20.53
2018-08-03T03:14:10.902Z,20.60
2018-08-03T03:15:10.747Z,20.48
2018-08-03T03:16:10.901Z,20.44
2018-08-03T03:17:10.702Z,20.54
2018-08-03T03:18:10.685Z,20.57
2018-08-03T03:19:10.661Z,20.56
2018-08-03T03:20:10.919Z,20.54
2018-08-03T03:21:10.614Z,20.60
2018-08-03T03:22:11.367Z,20.63
2018-08-03T03:23:10.577Z,20.61
2018-08-03T03:24:11.356Z,20.64
2018-08-03T03:25:10.573Z,20.60
2018-08-03T03:26:10.902Z,20.64
2018-08-03T03:27:10.541Z,20.61
2018-08-03T03:28:10.463Z,20.66
2018-08-03T03:29:11.351Z,20.67
2018-08-03T03:30:10.423Z,20.58
2018-08-03T03:31:11.351Z,20.67
2018-08-03T03:32:10.435Z,20.66
2018-08-03T03:33:10.354Z,20.68
2018-08-03T03:34:10.326Z,20.61
2018-08-03T03:35:10.850Z,20.66
2018-08-03T03:36:10.282Z,20.66
2018-08-03T03:37:10.406Z,20.66
2018-08-03T03:38:10.255Z,20.66
2018-08-03T03:39:10.218Z,20.63
2018-08-03T03:40:10.855Z,20.63
2018-08-03T03:41:10.229Z,20.68
2018-08-03T03:42:10.876Z,20.64
2018-08-03T03:43:10.131Z,20.66
2018-08-03T03:44:10.102Z,20.63
2018-08-03T03:45:10.851Z,20.72
2018-08-03T03:46:10.119Z,20.71
2018-08-03T03:47:10.042Z,20.63
2018-08-03T03:48:10.852Z,20.58
2018-08-03T03:49:09.992Z,20.61
2018-08-03T03:50:10.853Z,20.63
2018-08-03T03:51:09.995Z,20.64
2018-08-03T03:52:09.971Z,20.68
2018-08-03T03:53:10.856Z,20.66
2018-08-03T03:54:09.884Z,20.64
2018-08-03T03:55:10.854Z,20.67
2018-08-03T03:56:09.848Z,20.66
2018-08-03T03:57:09.911Z,20.74
2018-08-03T03:58:09.797Z,20.76
2018-08-03T03:59:10.370Z,20.83
2018-08-03T04:00:09.797Z,20.85
2018-08-03T04:01:10.353Z,20.88
2018-08-03T04:02:09.716Z,20.83
2018-08-03T04:03:09.689Z,20.85
2018-08-03T04:04:09.672Z,20.76
2018-08-03T04:05:09.914Z,20.81
2018-08-03T04:06:09.622Z,20.83
2018-08-03T04:07:10.358Z,20.82
2018-08-03T04:08:09.579Z,20.76
2018-08-03T04:09:09.561Z,20.64
2018-08-03T04:10:09.912Z,20.63
2018-08-03T04:11:09.516Z,20.61
2018-08-03T04:12:10.385Z,20.63
2018-08-03T04:13:09.474Z,20.68
2018-08-03T04:14:09.928Z,20.64
2018-08-03T04:15:09.429Z,20.74
2018-08-03T04:16:10.359Z,20.74
2018-08-03T04:17:09.382Z,20.74
2018-08-03T04:18:09.405Z,20.86
2018-08-03T04:19:09.346Z,20.81
2018-08-03T04:20:09.366Z,20.85
2018-08-03T04:21:09.868Z,20.86
2018-08-03T04:22:09.276Z,20.81
2018-08-03T04:23:09.416Z,20.85
2018-08-03T04:24:09.230Z,20.91
2018-08-03T04:25:09.866Z,20.91
2018-08-03T04:26:09.188Z,20.98
2018-08-03T04:27:09.209Z,20.96
2018-08-03T04:28:09.409Z,20.97
2018-08-03T04:29:09.165Z,20.88
2018-08-03T04:30:09.867Z,20.98
2018-08-03T04:31:09.081Z,20.93
2018-08-03T04:32:09.864Z,20.91
2018-08-03T04:33:09.090Z,20.96
2018-08-03T04:34:09.029Z,20.94
2018-08-03T04:35:08.992Z,21.09
2018-08-03T04:36:09.867Z,21.15
2018-08-03T04:37:08.992Z,21.16
2018-08-03T04:38:09.865Z,21.22
2018-08-03T04:39:09.866Z,21.21
2018-08-03T04:40:09.427Z,21.16
2018-08-03T04:41:08.861Z,21.28
2018-08-03T04:42:09.430Z,21.33
2018-08-03T04:43:08.855Z,21.38
2018-08-03T04:44:08.791Z,21.41
2018-08-03T04:45:08.921Z,21.46
2018-08-03T04:46:08.748Z,21.52
2018-08-03T04:47:09.370Z,21.49
2018-08-03T04:48:08.706Z,21.58
2018-08-03T04:49:08.769Z,21.59
2018-08-03T04:50:08.661Z,21.59
2018-08-03T04:51:08.694Z,21.59
2018-08-03T04:52:09.367Z,21.67
2018-08-03T04:53:08.602Z,21.68
2018-08-03T04:54:09.374Z,21.68
2018-08-03T04:55:08.555Z,21.76
2018-08-03T04:56:08.924Z,21.76
2018-08-03T04:57:08.510Z,21.71
2018-08-03T04:58:09.369Z,21.74
2018-08-03T04:59:08.476Z,21.70
2018-08-03T05:00:09.375Z,21.74
2018-08-03T05:01:08.474Z,21.73
2018-08-03T05:02:09.369Z,21.70
2018-08-03T05:03:08.394Z,21.80
2018-08-03T05:04:08.367Z,21.89
2018-08-03T05:05:08.870Z,21.90
2018-08-03T05:06:08.365Z,21.92
2018-08-03T05:07:08.885Z,21.86
2018-08-03T05:08:08.277Z,21.85
2018-08-03T05:09:08.870Z,21.89
2018-08-03T05:10:08.286Z,21.96
2018-08-03T05:11:08.874Z,22.02
2018-08-03T05:12:08.242Z,22.04
2018-08-03T05:13:08.426Z,22.04
2018-08-03T05:14:08.162Z,22.12
2018-08-03T05:15:08.875Z,22.09
2018-08-03T05:16:08.112Z,22.18
2018-08-03T05:17:08.434Z,22.26
2018-08-03T05:18:08.077Z,22.36
2018-08-03T05:19:08.067Z,22.46
2018-08-03T05:20:08.429Z,22.49
2018-08-03T05:21:08.011Z,22.52
2018-08-03T05:22:08.878Z,22.59
2018-08-03T05:23:07.977Z,22.63
2018-08-03T05:24:08.449Z,22.70
2018-08-03T05:25:07.961Z,22.76
2018-08-03T05:26:08.432Z,22.79
2018-08-03T05:27:07.878Z,22.79
2018-08-03T05:28:08.378Z,22.92
2018-08-03T05:29:07.835Z,22.96
2018-08-03T05:30:08.382Z,22.96
2018-08-03T05:31:07.842Z,22.94
2018-08-03T05:32:08.378Z,23.01
2018-08-03T05:33:07.752Z,23.12
2018-08-03T05:34:07.737Z,23.21
2018-08-03T05:35:08.379Z,23.24
2018-08-03T05:36:07.780Z,23.28
2018-08-03T05:37:08.390Z,23.28
2018-08-03T05:38:07.705Z,23.28
2018-08-03T05:39:08.380Z,23.34
2018-08-03T05:40:07.625Z,23.42
2018-08-03T05:41:08.383Z,23.38
2018-08-03T05:42:07.618Z,23.47
2018-08-03T05:43:08.380Z,23.48
2018-08-03T05:44:07.538Z,23.48
2018-08-03T05:45:07.513Z,23.60
2018-08-03T05:46:07.937Z,23.70
2018-08-03T05:47:07.472Z,23.67
2018-08-03T05:48:07.458Z,23.67
2018-08-03T05:49:07.440Z,23.82
2018-08-03T05:50:07.422Z,23.79
2018-08-03T05:51:07.959Z,23.74
2018-08-03T05:52:07.421Z,23.74
2018-08-03T05:53:07.408Z,23.87
2018-08-03T05:54:07.883Z,23.85
2018-08-03T05:55:07.316Z,23.94
2018-08-03T05:56:07.884Z,23.89
2018-08-03T05:57:07.271Z,23.90
2018-08-03T05:58:07.446Z,23.89
2018-08-03T05:59:07.245Z,23.94
2018-08-03T06:00:07.888Z,24.00
2018-08-03T06:01:07.190Z,24.09
2018-08-03T06:02:07.887Z,24.15
2018-08-03T06:03:07.203Z,24.12
2018-08-03T06:04:07.197Z,24.14
2018-08-03T06:05:07.113Z,24.22
2018-08-03T06:06:07.886Z,24.26
2018-08-03T06:07:07.087Z,24.36
2018-08-03T06:08:08.014Z,24.37
2018-08-03T06:09:07.035Z,24.37
2018-08-03T06:10:07.017Z,24.39
2018-08-03T06:11:07.893Z,24.49
2018-08-03T06:12:06.986Z,24.49
2018-08-03T06:13:07.893Z,24.49
2018-08-03T06:14:06.995Z,24.59
2018-08-03T06:15:07.892Z,24.64
2018-08-03T06:16:06.896Z,24.82
2018-08-03T06:17:07.392Z,24.77
2018-08-03T06:18:06.861Z,24.87
2018-08-03T06:19:06.886Z,24.96
2018-08-03T06:20:06.820Z,25.01
2018-08-03T06:21:07.402Z,25.02
2018-08-03T06:22:06.779Z,25.12
2018-08-03T06:23:07.398Z,25.01
2018-08-03T06:24:06.784Z,25.19
2018-08-03T06:25:06.970Z,25.09
2018-08-03T06:26:06.713Z,25.22
2018-08-03T06:27:06.688Z,25.19
2018-08-03T06:28:07.398Z,25.17
2018-08-03T06:29:06.644Z,25.29
2018-08-03T06:30:06.954Z,25.29
2018-08-03T06:31:06.605Z,25.29
2018-08-03T06:32:07.395Z,25.23
2018-08-03T06:33:06.566Z,25.30
2018-08-03T06:34:06.618Z,25.34
2018-08-03T06:35:07.396Z,25.27
2018-08-03T06:36:06.507Z,25.32
2018-08-03T06:37:07.410Z,25.33
2018-08-03T06:38:06.476Z,25.30
2018-08-03T06:39:06.503Z,25.23
2018-08-03T06:40:07.401Z,25.26
2018-08-03T06:41:06.454Z,25.29
2018-08-03T06:42:06.896Z,25.38
2018-08-03T06:43:06.384Z,25.34
2018-08-03T06:44:06.356Z,25.38
2018-08-03T06:45:06.392Z,25.38
2018-08-03T06:46:06.472Z,25.42
2018-08-03T06:47:06.305Z,25.39
2018-08-03T06:48:06.287Z,25.39
2018-08-03T06:49:06.264Z,25.42
2018-08-03T06:50:06.902Z,25.38
2018-08-03T06:51:06.304Z,25.44
2018-08-03T06:52:06.903Z,25.45
2018-08-03T06:53:06.194Z,25.44
2018-08-03T06:54:06.166Z,25.49
2018-08-03T06:55:06.903Z,25.45
2018-08-03T06:56:06.207Z,25.45
2018-08-03T06:57:06.903Z,25.41
2018-08-03T06:58:06.098Z,25.45
2018-08-03T06:59:06.919Z,25.39
2018-08-03T07:00:06.077Z,25.48
2018-08-03T07:01:06.458Z,25.44
2018-08-03T07:02:06.019Z,25.49
2018-08-03T07:03:05.997Z,25.52
2018-08-03T07:04:05.979Z,25.52
2018-08-03T07:05:06.026Z,25.56
2018-08-03T07:06:05.937Z,25.59
2018-08-03T07:07:06.908Z,25.62
2018-08-03T07:08:05.900Z,25.64
2018-08-03T07:09:06.428Z,25.66
2018-08-03T07:10:05.908Z,25.74
2018-08-03T07:11:06.418Z,25.67
2018-08-03T07:12:05.870Z,25.71
2018-08-03T07:13:06.423Z,25.79
2018-08-03T07:14:05.791Z,25.78
2018-08-03T07:15:06.408Z,25.91
2018-08-03T07:16:05.749Z,25.88
2018-08-03T07:17:06.008Z,25.82
2018-08-03T07:18:05.713Z,25.91
2018-08-03T07:19:05.692Z,25.86
2018-08-03T07:20:06.475Z,25.96
2018-08-03T07:21:05.661Z,25.96
2018-08-03T07:22:05.975Z,25.94
2018-08-03T07:23:05.624Z,25.89
2018-08-03T07:24:06.414Z,25.94
2018-08-03T07:25:05.590Z,26.04
2018-08-03T07:26:06.417Z,26.04
2018-08-03T07:27:05.593Z,26.06
2018-08-03T07:28:06.418Z,26.15
2018-08-03T07:29:05.502Z,26.19
2018-08-03T07:30:06.413Z,26.17
2018-08-03T07:31:05.475Z,26.17
2018-08-03T07:32:05.988Z,26.17
2018-08-03T07:33:05.428Z,26.17
2018-08-03T07:34:05.412Z,26.31
2018-08-03T07:35:05.409Z,26.30
2018-08-03T07:36:05.376Z,26.31
2018-08-03T07:37:05.486Z,26.31
2018-08-03T07:38:05.383Z,26.31
2018-08-03T07:39:05.315Z,26.35
2018-08-03T07:40:06.002Z,26.45
2018-08-03T07:41:05.288Z,26.39
2018-08-03T07:42:05.919Z,26.42
2018-08-03T07:43:05.308Z,26.47
2018-08-03T07:44:05.920Z,26.56
2018-08-03T07:45:05.250Z,26.52
2018-08-03T07:46:05.920Z,26.54
2018-08-03T07:47:05.168Z,26.57
2018-08-03T07:48:05.199Z,26.63
2018-08-03T07:49:05.176Z,26.69
2018-08-03T07:50:05.113Z,26.69
2018-08-03T07:51:05.921Z,26.75
2018-08-03T07:52:05.077Z,26.79
2018-08-03T07:53:05.057Z,26.76
2018-08-03T07:54:05.081Z,26.72
2018-08-03T07:55:05.927Z,26.78
2018-08-03T07:56:05.017Z,26.74
2018-08-03T07:57:05.924Z,26.86
2018-08-03T07:58:05.016Z,26.78
2018-08-03T07:59:05.481Z,26.89
2018-08-03T08:00:04.929Z,26.87
2018-08-03T08:01:05.432Z,26.93
2018-08-03T08:02:04.898Z,26.94
2018-08-03T08:03:04.875Z,26.99
2018-08-03T08:04:04.911Z,26.93
2018-08-03T08:05:05.429Z,26.96
2018-08-03T08:06:04.820Z,27.00
2018-08-03T08:07:05.428Z,27.01
2018-08-03T08:08:04.784Z,27.05
2018-08-03T08:09:04.974Z,27.06
2018-08-03T08:10:04.747Z,27.08
2018-08-03T08:11:04.724Z,27.11
2018-08-03T08:12:05.428Z,27.12
2018-08-03T08:13:04.697Z,27.18
2018-08-03T08:14:04.989Z,27.26
2018-08-03T08:15:04.710Z,27.26
2018-08-03T08:16:05.427Z,27.27
2018-08-03T08:17:04.695Z,27.33
2018-08-03T08:18:04.612Z,27.31
2018-08-03T08:19:04.580Z,27.42
2018-08-03T08:20:04.984Z,27.46
2018-08-03T08:21:04.544Z,27.51
2018-08-03T08:22:05.436Z,27.49
2018-08-03T08:23:04.555Z,27.62
2018-08-03T08:24:05.428Z,27.64
2018-08-03T08:25:04.514Z,27.65
2018-08-03T08:26:05.045Z,27.65
2018-08-03T08:27:04.436Z,27.69
2018-08-03T08:28:04.460Z,27.68
2018-08-03T08:29:04.934Z,27.79
2018-08-03T08:30:04.388Z,27.79
2018-08-03T08:31:04.399Z,27.89
2018-08-03T08:32:04.351Z,27.91
2018-08-03T08:33:04.327Z,27.91
2018-08-03T08:34:04.313Z,27.90
2018-08-03T08:35:04.293Z,28.01
2018-08-03T08:36:04.495Z,28.03
2018-08-03T08:37:04.331Z,28.08
2018-08-03T08:38:04.240Z,27.99
2018-08-03T08:39:04.491Z,28.05
2018-08-03T08:40:04.207Z,28.09
2018-08-03T08:41:04.937Z,28.14
2018-08-03T08:42:04.166Z,28.12
2018-08-03T08:43:04.491Z,28.12
2018-08-03T08:44:04.130Z,28.18
2018-08-03T08:45:04.121Z,28.16
2018-08-03T08:46:04.962Z,28.08
2018-08-03T08:47:04.095Z,28.14
2018-08-03T08:48:04.097Z,28.11
2018-08-03T08:49:04.077Z,28.18
2018-08-03T08:50:04.024Z,28.23
2018-08-03T08:51:04.493Z,28.20
2018-08-03T08:52:03.987Z,28.26
2018-08-03T08:53:04.941Z,28.26
2018-08-03T08:54:04.001Z,28.27
2018-08-03T08:55:04.441Z,28.31
2018-08-03T08:56:03.918Z,28.36
2018-08-03T08:57:04.440Z,28.55
2018-08-03T08:58:03.888Z,28.45
2018-08-03T08:59:04.013Z,28.39
2018-08-03T09:00:03.847Z,28.57
2018-08-03T09:01:04.445Z,28.48
2018-08-03T09:02:03.830Z,28.49
2018-08-03T09:03:03.802Z,28.51
2018-08-03T09:04:03.824Z,28.55
2018-08-03T09:05:03.807Z,28.61
2018-08-03T09:06:04.447Z,28.51
2018-08-03T09:07:03.731Z,28.54
2018-08-03T09:08:04.452Z,28.55
2018-08-03T09:09:03.697Z,28.58
2018-08-03T09:10:04.001Z,28.60
2018-08-03T09:11:03.663Z,28.58
2018-08-03T09:12:03.634Z,28.63
2018-08-03T09:13:04.476Z,28.67
2018-08-03T09:14:03.646Z,28.79
2018-08-03T09:15:04.450Z,28.76
2018-08-03T09:16:03.613Z,28.80
2018-08-03T09:17:04.447Z,28.85
2018-08-03T09:18:03.538Z,28.91
2018-08-03T09:19:03.513Z,28.83
2018-08-03T09:20:03.546Z,28.90
2018-08-03T09:21:04.448Z,28.86
2018-08-03T09:22:03.491Z,28.94
2018-08-03T09:23:03.962Z,28.98
2018-08-03T09:24:03.432Z,29.01
2018-08-03T09:25:03.514Z,28.95
2018-08-03T09:26:03.391Z,29.01
2018-08-03T09:27:03.955Z,28.98
2018-08-03T09:28:03.358Z,29.01
2018-08-03T09:29:03.517Z,29.03
2018-08-03T09:30:03.325Z,29.08
2018-08-03T09:31:03.997Z,29.18
2018-08-03T09:32:03.291Z,29.13
2018-08-03T09:33:03.316Z,29.11
2018-08-03T09:34:03.254Z,29.17
2018-08-03T09:35:03.240Z,29.26
2018-08-03T09:36:03.961Z,29.21
2018-08-03T09:37:03.251Z,29.17
2018-08-03T09:38:03.954Z,29.18
2018-08-03T09:39:03.174Z,29.24
2018-08-03T09:40:03.958Z,29.23
2018-08-03T09:41:03.135Z,29.24
2018-08-03T09:42:03.521Z,29.24
2018-08-03T09:43:03.238Z,29.32
2018-08-03T09:44:03.973Z,29.30
2018-08-03T09:45:03.065Z,29.29
2018-08-03T09:46:03.959Z,29.32
2018-08-03T09:47:03.092Z,29.39
2018-08-03T09:48:03.027Z,29.38
2018-08-03T09:49:03.029Z,29.38
2018-08-03T09:50:03.975Z,29.47
2018-08-03T09:51:02.965Z,29.42
2018-08-03T09:52:03.015Z,29.40
2018-08-03T09:53:02.933Z,29.51
2018-08-03T09:54:02.959Z,29.51
2018-08-03T09:55:03.459Z,29.48
2018-08-03T09:56:02.903Z,29.60
2018-08-03T09:57:03.024Z,29.58
2018-08-03T09:58:02.891Z,29.55
2018-08-03T09:59:03.465Z,29.63
2018-08-03T10:00:02.862Z,29.60
2018-08-03T10:01:03.459Z,29.67
2018-08-03T10:02:02.792Z,29.67
2018-08-03T10:03:02.798Z,29.65
2018-08-03T10:04:02.813Z,29.70
2018-08-03T10:05:02.727Z,29.81
2018-08-03T10:06:03.462Z,29.81
2018-08-03T10:07:02.696Z,29.76
2018-08-03T10:08:03.464Z,29.88
2018-08-03T10:09:02.704Z,29.87
2018-08-03T10:10:03.469Z,29.84
2018-08-03T10:11:02.631Z,29.82
2018-08-03T10:12:02.608Z,29.87
2018-08-03T10:13:03.023Z,29.87
2018-08-03T10:14:02.580Z,29.82
2018-08-03T10:15:03.029Z,29.87
2018-08-03T10:16:02.569Z,29.94
2018-08-03T10:17:03.477Z,29.89
2018-08-03T10:18:02.508Z,29.84
2018-08-03T10:19:02.485Z,29.84
2018-08-03T10:20:02.523Z,29.91
2018-08-03T10:21:02.458Z,29.85
2018-08-03T10:22:02.970Z,29.88
2018-08-03T10:23:02.419Z,29.89
2018-08-03T10:24:02.970Z,29.91
2018-08-03T10:25:02.432Z,29.95
2018-08-03T10:26:02.972Z,29.97
2018-08-03T10:27:02.360Z,29.98
2018-08-03T10:28:02.976Z,29.97
2018-08-03T10:29:02.363Z,30.06
2018-08-03T10:30:02.557Z,30.07
2018-08-03T10:31:02.288Z,30.00
2018-08-03T10:32:02.996Z,30.13
2018-08-03T10:33:02.305Z,30.16
2018-08-03T10:34:02.247Z,30.19
2018-08-03T10:35:02.229Z,30.19
2018-08-03T10:36:02.977Z,30.22
2018-08-03T10:37:02.231Z,30.25
2018-08-03T10:38:02.991Z,30.22
2018-08-03T10:39:02.154Z,30.31
2018-08-03T10:40:02.545Z,30.29
2018-08-03T10:41:02.124Z,30.28
2018-08-03T10:42:02.110Z,30.26
2018-08-03T10:43:02.985Z,30.31
2018-08-03T10:44:02.071Z,30.32
2018-08-03T10:45:02.540Z,30.28
2018-08-03T10:46:02.047Z,30.32
2018-08-03T10:47:02.538Z,30.31
2018-08-03T10:48:02.050Z,30.28
2018-08-03T10:49:02.012Z,30.44
2018-08-03T10:50:02.050Z,30.39
2018-08-03T10:51:02.498Z,30.51
2018-08-03T10:52:01.984Z,30.32
2018-08-03T10:53:02.483Z,30.49
2018-08-03T10:54:01.907Z,30.35
2018-08-03T10:55:02.050Z,30.54
2018-08-03T10:56:01.889Z,30.51
2018-08-03T10:57:02.487Z,30.54
2018-08-03T10:58:01.867Z,30.57
2018-08-03T10:59:02.486Z,30.54
2018-08-03T11:00:01.875Z,30.48
2018-08-03T11:01:02.487Z,30.57
2018-08-03T11:02:01.774Z,30.56
2018-08-03T11:03:01.762Z,30.57
2018-08-03T11:04:01.754Z,30.60
2018-08-03T11:05:01.776Z,30.67
2018-08-03T11:06:02.489Z,30.77
2018-08-03T11:07:01.735Z,30.75
2018-08-03T11:08:02.496Z,30.79
2018-08-03T11:09:01.662Z,30.81
2018-08-03T11:10:02.496Z,30.85
2018-08-03T11:11:01.648Z,30.86
2018-08-03T11:12:02.050Z,30.89
2018-08-03T11:13:01.600Z,30.91
2018-08-03T11:14:02.500Z,30.99
2018-08-03T11:15:01.606Z,31.00
2018-08-03T11:16:02.507Z,31.06
2018-08-03T11:17:01.529Z,31.04
2018-08-03T11:18:01.550Z,31.01
2018-08-03T11:19:01.521Z,31.03
2018-08-03T11:20:01.493Z,31.06
2018-08-03T11:21:01.513Z,31.01
2018-08-03T11:22:01.995Z,30.97
2018-08-03T11:23:01.448Z,30.99
2018-08-03T11:24:02.053Z,31.04
2018-08-03T11:25:01.415Z,31.13
2018-08-03T11:26:01.610Z,31.01
2018-08-03T11:27:01.374Z,31.12
2018-08-03T11:28:01.999Z,31.07
2018-08-03T11:29:01.337Z,31.03
2018-08-03T11:30:01.382Z,31.03
2018-08-03T11:31:02.000Z,31.01
2018-08-03T11:32:01.290Z,31.03
2018-08-03T11:33:01.273Z,31.16
2018-08-03T11:34:01.256Z,31.16
2018-08-03T11:35:01.320Z,31.19
2018-08-03T11:36:02.029Z,31.23
2018-08-03T11:37:01.218Z,31.15
2018-08-03T11:38:01.258Z,31.19
2018-08-03T11:39:02.013Z,31.22
2018-08-03T11:40:01.167Z,31.26
2018-08-03T11:41:02.001Z,31.26
2018-08-03T11:42:01.129Z,31.25
2018-08-03T11:43:01.592Z,31.40
2018-08-03T11:44:01.096Z,31.25
2018-08-03T11:45:01.999Z,31.36
2018-08-03T11:46:01.087Z,31.41
2018-08-03T11:47:02.008Z,31.45
2018-08-03T11:48:01.090Z,31.38
2018-08-03T11:49:01.029Z,31.41
2018-08-03T11:50:01.048Z,31.44
2018-08-03T11:51:01.501Z,31.40
2018-08-03T11:52:00.975Z,31.50
2018-08-03T11:53:01.504Z,31.49
2018-08-03T11:54:01.019Z,31.43
2018-08-03T11:55:00.923Z,31.53
2018-08-03T11:56:01.503Z,31.43
2018-08-03T11:57:00.893Z,31.49
2018-08-03T11:58:01.520Z,31.43
2018-08-03T11:59:00.905Z,31.50
2018-08-03T12:00:01.506Z,31.56
2018-08-03T12:01:00.876Z,31.49
2018-08-03T12:02:01.535Z,31.55
2018-08-03T12:03:00.801Z,31.53
2018-08-03T12:04:00.789Z,31.52
2018-08-03T12:05:00.770Z,31.50
2018-08-03T12:06:01.070Z,31.43
2018-08-03T12:07:00.735Z,31.53
2018-08-03T12:08:01.514Z,31.53
2018-08-03T12:09:00.702Z,31.53
2018-08-03T12:10:01.517Z,31.58
2018-08-03T12:11:00.743Z,31.53
2018-08-03T12:12:00.707Z,31.63
2018-08-03T12:13:01.512Z,31.67
2018-08-03T12:14:00.674Z,31.68
2018-08-03T12:15:01.068Z,31.72
2018-08-03T12:16:00.616Z,31.67
2018-08-03T12:17:01.512Z,31.63
2018-08-03T12:18:00.610Z,31.58
2018-08-03T12:19:00.594Z,31.65
2018-08-03T12:20:00.572Z,31.65
2018-08-03T12:21:01.512Z,31.67
2018-08-03T12:22:00.501Z,31.68
2018-08-03T12:23:01.016Z,31.68
2018-08-03T12:24:00.521Z,31.72
2018-08-03T12:25:01.018Z,31.70
2018-08-03T12:26:00.442Z,31.70
2018-08-03T12:27:01.019Z,31.71
2018-08-03T12:28:00.410Z,31.62
2018-08-03T12:29:00.444Z,31.63
2018-08-03T12:30:01.017Z,31.63
2018-08-03T12:31:00.412Z,31.65
2018-08-03T12:32:01.019Z,31.50
2018-08-03T12:33:00.331Z,31.56
2018-08-03T12:34:01.021Z,31.60
2018-08-03T12:35:00.304Z,31.67
2018-08-03T12:36:00.586Z,31.71
2018-08-03T12:37:00.335Z,31.70
2018-08-03T12:38:01.026Z,31.65
2018-08-03T12:39:00.238Z,31.67
2018-08-03T12:40:00.585Z,31.67
2018-08-03T12:41:00.211Z,31.70
2018-08-03T12:42:01.021Z,31.67
2018-08-03T12:43:00.174Z,31.72
2018-08-03T12:44:01.025Z,31.77
2018-08-03T12:45:01.024Z,31.80
2018-08-03T12:46:00.208Z,31.88
2018-08-03T12:47:00.114Z,31.82
2018-08-03T12:48:00.105Z,31.80
2018-08-03T12:49:01.031Z,31.86
2018-08-03T12:50:00.071Z,31.77
2018-08-03T12:51:00.594Z,31.78
2018-08-03T12:52:00.043Z,31.81